Booker, TX (79005)

2:52 PM CDT on August 29, 2016 (GMT -0500)
Zender Laundromat | | Change Station
Active Advisory: Areal Flood Watch

Elev 2844 ft 36.45 °N, 100.54 °W | Updated 30 seconds ago

Overcast
Overcast
81.0 °F
Feels Like 83 °F
N
5.4
Wind Variable Wind from West
Gusts 6.9 mph

Today
High -- | Low -- °F
--% Chance of Precip.
Yesterday
High -- | Low -- °F
Precip. -- in
Pressure 30.21 in
Visibility 0.8 miles
Clouds Mostly Cloudy 1600 ft
Overcast 2200 ft
Heat Index 83 °F
Dew Point 64 °F
Humidity 56%
Rainfall 0.00 in
Snow Depth Not available.
7:11 AM 8:13 PM
Waning Crescent, 7% visible
METAR KPYX 291935Z AUTO 28012KT 3/4SM BKN016 OVC022 22/20 A3021 RMK AO2 P0003 T02160196
Pressure 30.21 in
Visibility 0.8 miles
Clouds Mostly Cloudy 1600 ft
Overcast 2200 ft
Heat Index 83 °F
Dew Point 64 °F
Humidity 56%
Rainfall 0.00 in
Snow Depth Not available.
7:11 AM 8:13 PM
Waning Crescent, 7% visible
METAR KPYX 291935Z AUTO 28012KT 3/4SM BKN016 OVC022 22/20 A3021 RMK AO2 P0003 T02160196

10-Day Weather Forecast

Almanac

Astronomy

Aug. 29, 2016 Rise Set
Actual Time
Civil Twilight
Nautical Twilight
Astronomical Twilight
Moon
Length of Visible Light
Length of Day
Tomorrow will be .
, % of the Moon is Illuminated

Today's Extremes

State Highs State Lows

Community

WunderPhotos

Upload Photos

1,935,642 photos uploaded!

WunderBlog® & News

Nearby

Air Quality

  Air Quality AQ Index Pollutant
Not available.

Snow Depth

Station Depth Elevation

Earthquake Activity

City Distance Mag. Time & Date
Minimum magnitude displayed is 2.5.

Coastal Water Temperatures

Place Temperature

Stations

Nearby Weather Stations

Station Location Temp. Windchill Dew Point Humidity Wind Precip. Elev Updated Type
                   

Watches & Warnings

Areal Flood Watch
Issued: 12:06 PM CDT Aug. 29, 2016 – National Weather Service

... Flood Watch remains in effect through Wednesday morning...

The Flood Watch continues for

* portions of Oklahoma and Texas... including the following
areas... in Oklahoma... Beaver and Texas. In Texas...
Collingsworth... Donley... gray... Hansford... Hemphill...
Hutchinson... Lipscomb... Ochiltree... Roberts and Wheeler.

* Through Wednesday morning

* periods of scattered to numerous thunderstorms with heavy rain are
expected across most of the Texas and Oklahoma panhandles through
Wednesday morning. Areas in the watch have already seen heavy
rains over the last two days resulting in saturated soil
conditions. This combined with additional heavy rain expected
through Wednesday morning will lead to excessive runoff and
possible flooding.

Precautionary/preparedness actions...

A Flood Watch means there is a potential for flooding based on
current forecasts. You should monitor later forecasts and be
alert for possible flood warnings. Those living in areas prone to
flooding should be prepared to take action should flooding
develop.